< < Back
Terminal Aerodrome Forecast


Current Version              Previous Versions:   1  2  3  4  5  6  7  8  9  

Terminal Aerodrome Forecast

624
FTUS42 KCHS 260200 AAA
TAFCHS
TAF AMD
KCHS 260243Z 2603/2624 06010KT 5SM -RA BKN005 OVC020
      TEMPO 2603/2604 2SM RA OVC005
     FM260400 36008KT 3SM RA BR SCT006 OVC009
     FM261100 33010G17KT 5SM RA BR SCT010 OVC020
     FM261500 32014G22KT P6SM SCT025 BKN035
     FM261900 30012KT P6SM SCT050=

Latest METAR

394
SAUS80 KWBC 260502
MTRCHS
METAR KCHS 260456Z 34009KT 5SM -RA BR BKN005 OVC014 17/16 A2986 RMK AO2
SLP112 P0008 T01670161 401890161


USA.gov is the U.S. government's official web portal to all federal, state and local government web resources and services.